createdAt,value
2024-05-09T00:03:02.945Z,3.85
2024-05-09T00:06:05.944Z,4.22
2024-05-09T00:09:11.190Z,2.60
2024-05-09T00:12:13.896Z,3.38
2024-05-09T00:15:16.560Z,3.10
2024-05-09T00:18:19.068Z,2.30
2024-05-09T00:21:21.624Z,2.55
2024-05-09T00:24:28.651Z,2.50
2024-05-09T00:27:31.036Z,2.17
2024-05-09T00:30:36.135Z,4.80
2024-05-09T00:33:39.806Z,3.17
2024-05-09T00:36:42.250Z,2.30
2024-05-09T00:39:47.496Z,4.47
2024-05-09T00:42:49.988Z,3.90
2024-05-09T00:45:53.740Z,2.78
2024-05-09T00:48:56.503Z,2.75
2024-05-09T00:51:59.786Z,2.78
2024-05-09T00:55:08.235Z,3.45
2024-05-09T00:58:13.097Z,4.10
2024-05-09T01:01:20.789Z,5.70
2024-05-09T01:04:23.296Z,2.35
2024-05-09T01:07:26.465Z,2.30
2024-05-09T01:10:34.899Z,2.85
2024-05-09T01:13:40.316Z,4.78
2024-05-09T01:16:42.929Z,3.38
2024-05-09T01:19:45.945Z,1.83
2024-05-09T01:22:48.487Z,3.90
2024-05-09T01:25:53.534Z,3.58
2024-05-09T01:28:56.023Z,1.90
2024-05-09T01:31:59.866Z,3.22
2024-05-09T01:35:02.496Z,2.45
2024-05-09T01:38:05.725Z,2.17
2024-05-09T01:41:10.991Z,2.85
2024-05-09T01:44:13.611Z,3.25
2024-05-09T01:47:16.420Z,4.20
2024-05-09T01:50:25.311Z,3.15
2024-05-09T01:53:35.952Z,6.00
2024-05-09T01:56:41.079Z,4.53
2024-05-09T01:59:43.507Z,4.57
2024-05-09T02:02:46.574Z,2.90
2024-05-09T02:05:50.174Z,4.55
2024-05-09T02:08:52.813Z,2.63
2024-05-09T02:11:57.815Z,5.00
2024-05-09T02:15:00.352Z,3.03
2024-05-09T02:18:02.872Z,4.05
2024-05-09T02:21:05.929Z,5.20
2024-05-09T02:24:08.259Z,5.05
2024-05-09T02:27:13.305Z,3.35
2024-05-09T02:30:22.847Z,4.47
2024-05-09T02:33:34.111Z,5.20
2024-05-09T02:36:36.491Z,5.25
2024-05-09T02:39:38.919Z,6.20
2024-05-09T02:42:43.891Z,5.30
2024-05-09T02:45:46.405Z,6.82
2024-05-09T02:48:48.839Z,6.10
2024-05-09T02:51:51.351Z,2.45
2024-05-09T02:54:53.926Z,3.30
2024-05-09T02:57:58.970Z,2.90
2024-05-09T03:01:02.007Z,2.53
2024-05-09T03:04:04.718Z,2.38
2024-05-09T03:07:08.560Z,2.53
2024-05-09T03:10:18.336Z,2.20
2024-05-09T03:13:27.591Z,2.80
2024-05-09T03:16:30.074Z,2.33
2024-05-09T03:19:32.552Z,2.88
2024-05-09T03:22:35.073Z,3.00
2024-05-09T03:25:37.661Z,2.80
2024-05-09T03:28:42.817Z,3.30
2024-05-09T03:31:45.331Z,3.38
2024-05-09T03:34:48.046Z,2.75
2024-05-09T03:37:50.432Z,2.97
2024-05-09T03:40:53.188Z,2.30
2024-05-09T03:43:58.536Z,2.55
2024-05-09T03:47:01.089Z,1.95
2024-05-09T03:50:05.620Z,2.13
2024-05-09T03:53:11.191Z,2.30
2024-05-09T03:56:13.888Z,3.15
2024-05-09T03:59:19.298Z,3.90
2024-05-09T04:02:22.026Z,5.20
2024-05-09T04:05:25.669Z,3.95
2024-05-09T04:08:28.776Z,3.75
2024-05-09T04:11:31.423Z,1.33
2024-05-09T04:14:36.616Z,2.80
2024-05-09T04:17:39.312Z,2.85
2024-05-09T04:20:41.987Z,2.13
2024-05-09T04:23:44.540Z,2.55
2024-05-09T04:26:46.956Z,1.88
2024-05-09T04:29:51.956Z,5.32
2024-05-09T04:32:54.732Z,3.13
2024-05-09T04:35:57.172Z,3.25
2024-05-09T04:38:59.600Z,1.70
2024-05-09T04:42:01.987Z,6.57
2024-05-09T04:45:07.796Z,1.70
2024-05-09T04:48:10.974Z,2.05
2024-05-09T04:51:13.716Z,1.83
2024-05-09T04:54:26.324Z,3.03
2024-05-09T04:57:36.423Z,2.53
2024-05-09T05:00:41.904Z,2.20
2024-05-09T05:03:44.793Z,2.20
2024-05-09T05:06:47.288Z,1.65
2024-05-09T05:09:49.772Z,1.73
2024-05-09T05:13:11.305Z,1.55
2024-05-09T05:16:17.302Z,2.30
2024-05-09T05:19:19.868Z,1.95
2024-05-09T05:22:22.596Z,1.77
2024-05-09T05:25:26.867Z,2.63
2024-05-09T05:28:29.382Z,1.73
2024-05-09T05:31:34.485Z,2.47
2024-05-09T05:34:36.910Z,2.58
2024-05-09T05:37:39.351Z,2.90
2024-05-09T05:40:42.123Z,2.15
2024-05-09T05:43:44.564Z,2.72
2024-05-09T05:46:50.885Z,2.40
2024-05-09T05:49:55.391Z,2.78
2024-05-09T05:52:57.882Z,3.17
2024-05-09T05:56:00.475Z,2.83
2024-05-09T05:59:02.946Z,3.33
2024-05-09T06:02:09.646Z,2.20
2024-05-09T06:05:12.333Z,2.67
2024-05-09T06:08:15.263Z,3.88
2024-05-09T06:11:17.971Z,3.78
2024-05-09T06:14:20.770Z,2.55
2024-05-09T06:17:26.168Z,2.28
2024-05-09T06:20:35.577Z,2.70
2024-05-09T06:23:46.177Z,3.13
2024-05-09T06:26:48.565Z,2.72
2024-05-09T06:29:51.090Z,2.28
2024-05-09T06:32:56.289Z,2.70
2024-05-09T06:35:59.649Z,2.85
2024-05-09T06:39:02.246Z,3.53
2024-05-09T06:42:05.030Z,2.90
2024-05-09T06:45:07.794Z,2.90
2024-05-09T06:48:15.775Z,2.83
2024-05-09T06:51:21.754Z,2.38
2024-05-09T06:54:24.322Z,1.98
2024-05-09T06:57:30.029Z,3.28
2024-05-09T07:00:38.776Z,2.55
2024-05-09T07:03:46.446Z,2.92
2024-05-09T07:06:48.867Z,2.25
2024-05-09T07:09:51.383Z,2.40
2024-05-09T07:12:53.851Z,2.10
2024-05-09T07:15:56.439Z,3.90
2024-05-09T07:19:01.795Z,3.05
2024-05-09T07:22:04.750Z,2.42
2024-05-09T07:25:07.507Z,3.53
2024-05-09T07:28:11.828Z,3.00
2024-05-09T07:31:15.168Z,3.83
2024-05-09T07:34:20.692Z,2.60
2024-05-09T07:37:23.386Z,5.68
2024-05-09T07:40:33.102Z,2.20
2024-05-09T07:43:38.792Z,3.25
2024-05-09T07:51:32.799Z,8.07
2024-05-09T07:53:37.597Z,4.18
2024-05-09T07:56:37.088Z,4.40
2024-05-09T07:59:39.587Z,4.50
2024-05-09T08:02:42.213Z,5.53
2024-05-09T08:05:47.260Z,3.58
2024-05-09T08:08:49.790Z,3.53
2024-05-09T08:11:52.896Z,10.65
2024-05-09T08:14:56.447Z,3.58
2024-05-09T08:17:59.555Z,3.35
2024-05-09T08:21:05.112Z,2.95
2024-05-09T08:24:07.562Z,2.97
2024-05-09T08:27:10.119Z,4.15
2024-05-09T08:30:21.346Z,3.22
2024-05-09T08:33:27.784Z,3.53
2024-05-09T08:36:32.933Z,3.65
2024-05-09T08:39:35.362Z,3.42
2024-05-09T08:42:45.452Z,5.15
2024-05-09T08:45:50.234Z,4.43
2024-05-09T08:48:55.934Z,4.97
2024-05-09T08:52:01.238Z,3.53
2024-05-09T08:55:04.154Z,4.97
2024-05-09T08:58:08.033Z,5.40
2024-05-09T09:01:13.195Z,2.75
2024-05-09T09:04:17.614Z,3.22
2024-05-09T09:07:23.214Z,4.95
2024-05-09T09:10:31.982Z,4.97
2024-05-09T09:13:35.675Z,3.88
2024-05-09T09:16:41.206Z,2.60
2024-05-09T09:19:44.475Z,5.07
2024-05-09T09:22:50.708Z,3.80
2024-05-09T09:25:59.546Z,5.65
2024-05-09T09:29:05.515Z,2.92
2024-05-09T09:32:13.063Z,4.22
2024-05-09T09:35:15.636Z,7.07
2024-05-09T09:38:23.963Z,3.63
2024-05-09T09:41:30.850Z,5.60
2024-05-09T09:44:34.240Z,5.35
2024-05-09T09:47:41.509Z,4.57
2024-05-09T09:50:45.961Z,4.13
2024-05-09T09:53:53.446Z,3.55
2024-05-09T09:56:57.055Z,3.75
2024-05-09T10:00:00.368Z,3.60
2024-05-09T10:03:03.245Z,3.13
2024-05-09T10:06:07.513Z,3.42
2024-05-09T10:09:16.512Z,3.85
2024-05-09T10:12:21.644Z,4.32
2024-05-09T10:15:26.714Z,4.20
2024-05-09T10:18:37.107Z,4.30
2024-05-09T10:21:47.401Z,4.03
2024-05-09T10:24:54.283Z,3.97
2024-05-09T10:27:56.985Z,2.97
2024-05-09T10:31:04.038Z,4.05
2024-05-09T10:34:06.825Z,3.30
2024-05-09T10:37:10.700Z,2.92
2024-05-09T10:40:26.585Z,3.00
2024-05-09T10:43:34.575Z,2.20
2024-05-09T10:46:37.425Z,3.25
2024-05-09T10:49:40.301Z,3.92
2024-05-09T10:52:42.929Z,3.42
2024-05-09T10:55:58.392Z,3.92
2024-05-09T10:59:04.221Z,4.75
2024-05-09T11:02:08.108Z,4.68
2024-05-09T11:05:11.225Z,3.53
2024-05-09T11:08:14.180Z,4.88
2024-05-09T11:11:19.695Z,4.82
2024-05-09T11:14:22.359Z,4.32
2024-05-09T11:17:25.359Z,4.10
2024-05-09T11:20:35.571Z,4.43
2024-05-09T11:23:38.826Z,6.05
2024-05-09T11:26:44.073Z,4.28
2024-05-09T11:29:47.578Z,3.58
2024-05-09T11:32:50.212Z,3.67
2024-05-09T11:35:55.020Z,4.90
2024-05-09T11:39:00.429Z,5.20
2024-05-09T11:42:06.372Z,3.42
2024-05-09T11:45:09.281Z,3.40
2024-05-09T11:48:12.027Z,5.45
2024-05-09T11:51:14.769Z,2.53
2024-05-09T11:54:17.522Z,5.15
2024-05-09T11:57:24.553Z,2.78
2024-05-09T12:00:34.112Z,5.03
2024-05-09T12:03:40.029Z,5.25
2024-05-09T12:06:42.779Z,3.25
2024-05-09T12:09:45.514Z,4.40
2024-05-09T12:12:50.803Z,3.95
2024-05-09T12:15:54.469Z,3.90
2024-05-09T12:18:57.185Z,5.90
2024-05-09T12:22:00.056Z,2.38
2024-05-09T12:25:04.944Z,3.50
2024-05-09T12:28:10.580Z,3.53
2024-05-09T12:31:13.308Z,3.20
2024-05-09T12:34:16.412Z,2.30
2024-05-09T12:37:19.493Z,4.35
2024-05-09T12:40:30.754Z,4.32
2024-05-09T12:43:40.149Z,3.22
2024-05-09T12:46:42.815Z,3.42
2024-05-09T12:49:45.529Z,4.22
2024-05-09T12:52:48.069Z,3.72
2024-05-09T12:55:56.849Z,4.65
2024-05-09T12:59:05.366Z,3.35
2024-05-09T13:02:09.764Z,5.18
2024-05-09T13:05:14.361Z,2.63
2024-05-09T13:08:17.213Z,2.63
2024-05-09T13:11:19.856Z,2.50
2024-05-09T13:14:25.079Z,2.55
2024-05-09T13:17:27.830Z,4.60
2024-05-09T13:20:33.870Z,2.88
2024-05-09T13:23:38.148Z,3.88
2024-05-09T13:26:40.826Z,2.85
2024-05-09T13:29:46.101Z,3.70
2024-05-09T13:32:49.153Z,2.58
2024-05-09T13:35:51.855Z,3.00
2024-05-09T13:38:56.656Z,3.08
2024-05-09T13:41:59.183Z,3.20
2024-05-09T13:45:06.922Z,4.22
2024-05-09T13:48:12.278Z,4.85
2024-05-09T13:51:14.997Z,2.83
2024-05-09T13:54:22.345Z,2.95
2024-05-09T13:57:25.454Z,2.65
2024-05-09T14:00:42.402Z,2.70
2024-05-09T14:03:49.921Z,2.38
2024-05-09T14:06:53.238Z,3.60
2024-05-09T14:09:55.901Z,2.47
2024-05-09T14:12:58.579Z,2.42
2024-05-09T14:16:04.068Z,3.00
2024-05-09T14:19:06.768Z,2.78
2024-05-09T14:22:09.539Z,2.95
2024-05-09T14:25:14.982Z,2.47
2024-05-09T14:28:18.571Z,2.65
2024-05-09T14:31:23.793Z,3.70
2024-05-09T14:34:27.274Z,2.40
2024-05-09T14:37:30.060Z,2.58
2024-05-09T14:43:39.291Z,2.38
2024-05-09T14:46:44.604Z,3.55
2024-05-09T14:49:47.150Z,3.38
2024-05-09T14:52:49.908Z,4.82
2024-05-09T14:55:52.391Z,3.33
2024-05-09T14:58:57.126Z,3.60
2024-05-09T15:02:02.528Z,2.10
2024-05-09T15:05:07.170Z,2.50
2024-05-09T15:08:09.820Z,3.30
2024-05-09T15:11:12.448Z,5.30
2024-05-09T15:14:15.985Z,5.13
2024-05-09T15:17:21.248Z,2.58
2024-05-09T15:20:31.454Z,4.07
2024-05-09T15:23:37.822Z,2.45
2024-05-09T15:26:40.379Z,4.93
2024-05-09T15:29:43.219Z,3.92
2024-05-09T15:32:48.435Z,2.40
2024-05-09T15:35:51.759Z,2.45
2024-05-09T15:38:55.697Z,3.00
2024-05-09T15:41:58.362Z,3.58
2024-05-09T15:45:01.051Z,3.65
2024-05-09T15:48:07.255Z,3.50
2024-05-09T15:51:09.995Z,3.10
2024-05-09T15:54:12.606Z,2.80
2024-05-09T15:57:15.362Z,4.13
2024-05-09T16:00:25.108Z,2.75
2024-05-09T16:03:39.268Z,3.00
2024-05-09T16:06:41.916Z,2.53
2024-05-09T16:09:44.534Z,3.97
2024-05-09T16:12:47.109Z,9.35
2024-05-09T16:15:52.071Z,4.38
2024-05-09T16:18:57.345Z,2.88
2024-05-09T16:22:00.419Z,3.95
2024-05-09T16:25:03.131Z,5.32
2024-05-09T16:28:09.884Z,2.83
2024-05-09T16:31:13.452Z,2.70
2024-05-09T16:34:18.892Z,2.78
2024-05-09T16:37:21.479Z,2.38
2024-05-09T16:40:33.077Z,4.40
2024-05-09T16:43:39.852Z,3.17
2024-05-09T16:46:43.466Z,5.05
2024-05-09T16:49:48.957Z,3.53
2024-05-09T16:52:51.447Z,3.20
2024-05-09T16:55:54.246Z,3.42
2024-05-09T16:58:56.819Z,6.00
2024-05-09T17:01:59.559Z,4.55
2024-05-09T17:05:06.458Z,2.20
2024-05-09T17:08:09.439Z,2.53
2024-05-09T17:11:13.334Z,2.47
2024-05-09T17:14:15.900Z,6.57
2024-05-09T17:17:19.157Z,2.60
2024-05-09T17:20:31.799Z,3.30
2024-05-09T17:23:40.199Z,2.15
2024-05-09T17:26:42.674Z,4.28
2024-05-09T17:29:47.984Z,3.35
2024-05-09T17:32:50.493Z,2.53
2024-05-09T17:35:55.606Z,2.78
2024-05-09T17:38:58.218Z,4.68
2024-05-09T17:42:06.506Z,3.53
2024-05-09T17:45:11.688Z,3.25
2024-05-09T17:48:14.432Z,2.25
2024-05-09T17:51:20.697Z,2.95
2024-05-09T17:54:23.300Z,2.60
2024-05-09T17:57:26.258Z,3.58
2024-05-09T18:00:37.020Z,4.38
2024-05-09T18:03:43.867Z,3.35
2024-05-09T18:06:48.996Z,3.85
2024-05-09T18:09:51.592Z,3.80
2024-05-09T18:12:54.143Z,3.15
2024-05-09T18:15:56.769Z,4.18
2024-05-09T18:19:00.109Z,4.13
2024-05-09T18:22:05.951Z,4.05
2024-05-09T18:25:08.529Z,5.97
2024-05-09T18:28:11.276Z,4.20
2024-05-09T18:31:15.775Z,3.50
2024-05-09T18:34:18.472Z,5.32
2024-05-09T18:37:24.331Z,4.40
2024-05-09T18:40:33.684Z,4.20
2024-05-09T18:46:48.341Z,4.70
2024-05-09T18:49:51.075Z,5.90
2024-05-09T18:52:59.582Z,5.07
2024-05-09T18:56:02.110Z,5.93
2024-05-09T18:59:04.655Z,4.55
2024-05-09T19:02:07.472Z,6.15
2024-05-09T19:05:10.229Z,7.63
2024-05-09T19:08:15.853Z,5.88
2024-05-09T19:11:18.419Z,6.15
2024-05-09T19:14:20.904Z,4.75
2024-05-09T19:17:23.435Z,5.53
2024-05-09T19:20:31.958Z,4.35
2024-05-09T19:23:46.856Z,5.25
2024-05-09T19:26:53.262Z,6.00
2024-05-09T19:29:57.642Z,5.63
2024-05-09T19:33:00.461Z,6.65
2024-05-09T19:36:03.178Z,6.00
2024-05-09T19:39:08.224Z,5.15
2024-05-09T19:42:10.627Z,5.97
2024-05-09T19:45:13.293Z,7.35
2024-05-09T19:48:16.045Z,6.25
2024-05-09T19:51:18.469Z,5.63
2024-05-09T19:54:23.446Z,6.13
2024-05-09T19:57:25.903Z,5.25
2024-05-09T20:00:34.739Z,6.47
2024-05-09T20:03:38.616Z,7.22
2024-05-09T20:06:41.859Z,6.57
2024-05-09T20:09:46.853Z,6.63
2024-05-09T20:12:49.425Z,7.05
2024-05-09T20:15:51.987Z,6.72
2024-05-09T20:18:54.538Z,6.63
2024-05-09T20:21:59.288Z,5.80
2024-05-09T20:25:04.919Z,8.25
2024-05-09T20:28:08.008Z,9.20
2024-05-09T20:31:10.601Z,6.30
2024-05-09T20:34:13.079Z,7.35
2024-05-09T20:37:15.667Z,6.22
2024-05-09T20:40:28.691Z,8.70
2024-05-09T20:43:35.208Z,8.00
2024-05-09T20:46:37.555Z,5.13
2024-05-09T20:49:40.179Z,6.80
2024-05-09T20:52:42.642Z,6.97
2024-05-09T20:55:47.862Z,6.30
2024-05-09T20:58:50.336Z,7.72
2024-05-09T21:01:52.783Z,5.80
2024-05-09T21:04:55.473Z,5.78
2024-05-09T21:07:58.423Z,5.80
2024-05-09T21:11:03.432Z,6.28
2024-05-09T21:14:06.023Z,7.03
2024-05-09T21:17:08.640Z,6.25
2024-05-09T21:20:17.073Z,6.00
2024-05-09T21:23:22.794Z,5.95
2024-05-09T21:26:29.578Z,7.32
2024-05-09T21:29:32.051Z,6.05
2024-05-09T21:32:34.543Z,10.18
2024-05-09T21:35:37.170Z,5.97
2024-05-09T21:38:40.770Z,7.43
2024-05-09T21:41:45.867Z,6.28
2024-05-09T21:44:48.338Z,6.38
2024-05-09T21:47:50.924Z,7.25
2024-05-09T21:50:53.445Z,7.20
2024-05-09T21:53:58.346Z,6.35
2024-05-09T21:57:06.522Z,6.70
2024-05-09T22:00:27.916Z,5.90
2024-05-09T22:03:37.141Z,6.70
2024-05-09T22:06:39.708Z,6.93
2024-05-09T22:09:45.494Z,7.70
2024-05-09T22:12:50.659Z,7.80
2024-05-09T22:15:53.114Z,5.70
2024-05-09T22:18:55.711Z,6.40
2024-05-09T22:21:58.314Z,6.50
2024-05-09T22:25:01.303Z,6.45
2024-05-09T22:28:07.248Z,6.90
2024-05-09T22:31:09.808Z,8.65
2024-05-09T22:34:12.461Z,6.55
2024-05-09T22:37:14.899Z,7.45
2024-05-09T22:40:24.449Z,6.50
2024-05-09T22:43:38.260Z,6.85
2024-05-09T22:46:40.619Z,6.50
2024-05-09T22:49:43.003Z,8.00
2024-05-09T22:52:45.430Z,10.70
2024-05-09T22:55:47.849Z,7.70
2024-05-09T22:58:52.916Z,8.27
2024-05-09T23:01:55.485Z,7.50
2024-05-09T23:04:58.121Z,8.02
2024-05-09T23:08:01.142Z,8.98
2024-05-09T23:11:05.801Z,7.38
2024-05-09T23:14:11.123Z,8.85
2024-05-09T23:17:13.908Z,7.43
2024-05-09T23:20:22.091Z,7.47
2024-05-09T23:23:32.372Z,7.20
2024-05-09T23:26:34.884Z,7.90
2024-05-09T23:29:39.901Z,9.15
2024-05-09T23:32:42.329Z,11.85
2024-05-09T23:35:45.042Z,8.38
2024-05-09T23:38:47.518Z,8.43
2024-05-09T23:41:49.883Z,9.93
2024-05-09T23:44:55.039Z,12.50
2024-05-09T23:47:58.759Z,9.48
2024-05-09T23:51:01.260Z,12.18
2024-05-09T23:54:03.680Z,11.98
2024-05-09T23:57:06.280Z,11.10
